createdAt,value
2022-12-22T00:01:21.096Z,29.05
2022-12-22T00:04:29.379Z,29.58
2022-12-22T00:07:33.377Z,33.53
2022-12-22T00:10:37.670Z,30.33
2022-12-22T00:13:41.531Z,29.63
2022-12-22T00:16:52.548Z,27.65
2022-12-22T00:19:57.047Z,30.67
2022-12-22T00:23:01.009Z,29.10
2022-12-22T00:26:05.913Z,28.15
2022-12-22T00:29:10.197Z,28.00
2022-12-22T00:32:14.729Z,26.33
2022-12-22T00:35:20.200Z,27.17
2022-12-22T00:38:36.496Z,26.88
2022-12-22T00:41:40.880Z,26.40
2022-12-22T00:44:44.916Z,26.05
2022-12-22T00:47:50.552Z,25.88
2022-12-22T00:50:54.937Z,25.33
2022-12-22T00:53:58.872Z,23.50
2022-12-22T00:57:03.438Z,23.70
2022-12-22T01:00:08.859Z,23.80
2022-12-22T01:03:12.829Z,31.75
2022-12-22T01:06:21.302Z,26.58
2022-12-22T01:09:25.164Z,23.70
2022-12-22T01:12:40.925Z,22.55
2022-12-22T01:15:47.238Z,23.58
2022-12-22T01:18:51.054Z,23.10
2022-12-22T01:21:55.040Z,23.27
2022-12-22T01:24:59.210Z,24.48
2022-12-22T01:28:03.059Z,25.65
2022-12-22T01:31:07.145Z,30.35
2022-12-22T01:34:11.108Z,43.28
2022-12-22T01:37:15.220Z,34.58
2022-12-22T01:40:19.136Z,35.30
2022-12-22T01:43:38.952Z,43.63
2022-12-22T01:46:59.025Z,42.35
2022-12-22T01:50:03.286Z,32.47
2022-12-22T01:53:07.285Z,30.73
2022-12-22T01:56:12.254Z,28.80
2022-12-22T01:59:21.417Z,27.35
2022-12-22T02:02:28.288Z,27.48
2022-12-22T02:05:35.729Z,33.63
2022-12-22T02:08:45.514Z,34.13
2022-12-22T02:12:19.359Z,35.60
2022-12-22T02:15:37.140Z,35.80
2022-12-22T02:18:53.101Z,37.83
2022-12-22T02:22:20.603Z,48.28
2022-12-22T02:25:33.539Z,39.95
2022-12-22T02:28:37.609Z,40.83
2022-12-22T02:31:43.118Z,38.08
2022-12-22T02:34:47.314Z,77.78
2022-12-22T02:38:10.323Z,57.80
2022-12-22T02:41:14.288Z,60.58
2022-12-22T02:44:37.033Z,70.45
2022-12-22T02:47:55.339Z,41.80
2022-12-22T02:51:11.939Z,43.10
2022-12-22T02:54:17.836Z,44.53
2022-12-22T02:57:25.328Z,37.55
2022-12-22T03:00:30.132Z,34.55
2022-12-22T03:03:35.226Z,35.03
2022-12-22T03:06:39.601Z,40.25
2022-12-22T03:09:43.779Z,44.58
2022-12-22T03:12:47.754Z,39.85
2022-12-22T03:15:51.829Z,48.83
2022-12-22T03:18:56.005Z,45.97
2022-12-22T03:21:59.918Z,37.20
2022-12-22T03:25:03.806Z,33.50
2022-12-22T03:27:49.215Z,33.85
2022-12-22T03:30:35.283Z,32.05
2022-12-22T03:33:21.939Z,35.42
2022-12-22T03:36:08.685Z,34.47
2022-12-22T03:38:53.925Z,31.95
2022-12-22T03:41:58.531Z,32.10
2022-12-22T03:45:02.588Z,28.88
2022-12-22T03:47:47.929Z,31.77
2022-12-22T03:50:33.310Z,29.60
2022-12-22T03:53:18.746Z,31.17
2022-12-22T03:56:07.684Z,32.10
2022-12-22T03:58:53.895Z,35.13
2022-12-22T04:01:45.435Z,38.80
2022-12-22T04:04:31.278Z,34.85
2022-12-22T04:07:16.555Z,31.80
2022-12-22T04:10:20.513Z,30.13
2022-12-22T04:13:06.022Z,28.40
2022-12-22T04:15:51.420Z,27.85
2022-12-22T04:18:36.650Z,26.45
2022-12-22T04:21:22.102Z,25.88
2022-12-22T04:24:07.848Z,27.35
2022-12-22T04:26:53.951Z,23.35
2022-12-22T04:29:39.614Z,23.42
2022-12-22T04:32:25.023Z,23.02
2022-12-22T04:35:11.270Z,23.83
2022-12-22T04:37:56.807Z,23.58
2022-12-22T04:40:42.079Z,25.65
2022-12-22T04:43:27.393Z,27.85
2022-12-22T04:46:23.049Z,24.77
2022-12-22T04:49:09.337Z,24.58
2022-12-22T04:51:54.707Z,29.67
2022-12-22T04:54:40.171Z,31.30
2022-12-22T04:57:27.257Z,30.45
2022-12-22T05:00:13.695Z,30.58
2022-12-22T05:02:59.440Z,29.65
2022-12-22T05:05:45.590Z,30.05
2022-12-22T05:08:31.350Z,30.85
2022-12-22T05:11:18.816Z,28.90
2022-12-22T05:14:07.350Z,28.50
2022-12-22T05:16:53.347Z,25.63
2022-12-22T05:19:38.986Z,24.02
2022-12-22T05:22:24.564Z,23.83
2022-12-22T05:25:10.144Z,23.55
2022-12-22T05:27:55.552Z,24.33
2022-12-22T05:30:41.584Z,25.15
2022-12-22T05:33:26.734Z,23.17
2022-12-22T05:36:12.706Z,22.52
2022-12-22T05:38:57.967Z,21.98
2022-12-22T05:41:43.366Z,23.33
2022-12-22T05:44:28.802Z,23.90
2022-12-22T05:47:14.032Z,24.90
2022-12-22T05:49:59.509Z,23.92
2022-12-22T05:52:45.617Z,26.10
2022-12-22T05:55:30.837Z,29.35
2022-12-22T05:58:16.373Z,36.17
2022-12-22T06:01:01.949Z,37.22
2022-12-22T06:03:47.762Z,35.15
2022-12-22T06:06:33.054Z,35.47
2022-12-22T06:09:18.483Z,38.83
2022-12-22T06:12:03.909Z,36.10
2022-12-22T06:14:49.647Z,37.00
2022-12-22T06:17:42.124Z,35.85
2022-12-22T06:20:30.386Z,44.65
2022-12-22T06:23:15.900Z,36.53
2022-12-22T06:26:02.619Z,31.27
2022-12-22T06:28:48.643Z,25.88
2022-12-22T06:31:34.706Z,29.08
2022-12-22T06:34:20.255Z,28.60
2022-12-22T06:37:06.315Z,30.40
2022-12-22T06:39:51.779Z,34.38
2022-12-22T06:42:56.920Z,36.70
2022-12-22T06:45:45.256Z,41.40
2022-12-22T06:48:31.086Z,70.07
2022-12-22T06:51:16.259Z,50.88
2022-12-22T06:54:01.811Z,47.20
2022-12-22T06:56:47.072Z,45.90
2022-12-22T06:59:32.300Z,44.42
2022-12-22T07:02:18.024Z,42.83
2022-12-22T07:05:04.096Z,40.05
2022-12-22T07:07:50.192Z,38.17
2022-12-22T07:10:54.515Z,34.17
2022-12-22T07:13:39.730Z,35.50
2022-12-22T07:16:25.298Z,29.42
2022-12-22T07:19:11.086Z,28.73
2022-12-22T07:21:57.343Z,31.73
2022-12-22T07:24:42.955Z,37.65
2022-12-22T07:27:28.302Z,53.55
2022-12-22T07:30:14.168Z,64.68
2022-12-22T07:32:59.897Z,53.58
2022-12-22T07:35:45.754Z,57.65
2022-12-22T07:38:36.930Z,62.35
2022-12-22T07:41:41.199Z,69.83
2022-12-22T07:44:26.997Z,59.13
2022-12-22T07:47:12.485Z,52.55
2022-12-22T07:50:16.635Z,58.75
2022-12-22T07:53:05.295Z,55.75
2022-12-22T07:55:50.858Z,49.92
2022-12-22T07:58:36.332Z,49.80
2022-12-22T08:01:21.781Z,42.30
2022-12-22T08:04:08.508Z,47.55
2022-12-22T08:06:54.159Z,45.38
2022-12-22T08:09:39.660Z,46.75
2022-12-22T08:12:25.327Z,45.58
2022-12-22T08:15:11.690Z,45.15
2022-12-22T08:17:57.069Z,43.88
2022-12-22T08:20:49.182Z,41.90
2022-12-22T08:23:35.751Z,39.55
2022-12-22T08:26:44.289Z,39.53
2022-12-22T08:29:44.774Z,62.80
2022-12-22T08:32:30.413Z,52.25
2022-12-22T08:35:16.349Z,45.08
2022-12-22T08:38:02.379Z,51.05
2022-12-22T08:40:48.990Z,82.68
2022-12-22T08:43:34.723Z,65.25
2022-12-22T08:46:20.351Z,69.70
2022-12-22T08:49:05.650Z,84.00
2022-12-22T08:51:51.009Z,66.63
2022-12-22T08:54:36.460Z,69.13
2022-12-22T08:57:21.865Z,48.45
2022-12-22T09:00:12.596Z,41.20
2022-12-22T09:02:58.029Z,41.53
2022-12-22T09:05:43.458Z,42.75
2022-12-22T09:08:29.012Z,43.72
2022-12-22T09:11:15.476Z,46.05
2022-12-22T09:14:02.701Z,43.08
2022-12-22T09:16:48.310Z,36.95
2022-12-22T09:19:33.634Z,33.83
2022-12-22T09:22:25.107Z,28.98
2022-12-22T09:25:14.350Z,27.50
2022-12-22T09:28:00.106Z,28.40
2022-12-22T09:30:52.876Z,27.67
2022-12-22T09:33:38.505Z,26.92
2022-12-22T09:36:27.076Z,27.52
2022-12-22T09:39:13.826Z,28.80
2022-12-22T09:42:01.052Z,31.00
2022-12-22T09:44:50.692Z,30.88
2022-12-22T09:47:39.601Z,31.60
2022-12-22T09:50:26.696Z,32.55
2022-12-22T09:53:23.649Z,29.08
2022-12-22T09:56:16.660Z,34.83
2022-12-22T09:59:02.319Z,33.22
2022-12-22T10:01:57.079Z,29.92
2022-12-22T10:04:58.140Z,30.70
2022-12-22T10:07:44.568Z,31.95
2022-12-22T10:10:31.623Z,30.40
2022-12-22T10:13:18.684Z,32.65
2022-12-22T10:16:19.779Z,27.50
2022-12-22T10:19:13.622Z,29.63
2022-12-22T10:22:27.054Z,28.13
2022-12-22T10:25:39.467Z,25.40
2022-12-22T10:28:41.846Z,25.67
2022-12-22T10:31:31.683Z,24.98
2022-12-22T10:34:18.651Z,26.98
2022-12-22T10:37:06.098Z,24.05
2022-12-22T10:39:51.685Z,26.83
2022-12-22T10:42:37.336Z,27.58
2022-12-22T10:45:27.403Z,27.58
2022-12-22T10:48:14.012Z,29.25
2022-12-22T10:51:01.726Z,30.25
2022-12-22T10:53:49.305Z,28.05
2022-12-22T10:56:35.045Z,27.08
2022-12-22T10:59:20.701Z,30.08
2022-12-22T11:02:22.854Z,33.22
2022-12-22T11:05:12.359Z,30.63
2022-12-22T11:08:06.071Z,29.42
2022-12-22T11:11:00.244Z,26.83
2022-12-22T11:14:03.403Z,27.10
2022-12-22T11:17:00.951Z,23.25
2022-12-22T11:20:00.793Z,27.60
2022-12-22T11:22:53.914Z,26.05
2022-12-22T11:26:03.125Z,25.13
2022-12-22T11:29:12.721Z,28.00
2022-12-22T11:32:17.378Z,25.80
2022-12-22T11:35:17.472Z,25.63
2022-12-22T11:38:46.783Z,26.27
2022-12-22T11:42:04.697Z,25.80
2022-12-22T11:45:16.504Z,31.67
2022-12-22T11:48:23.539Z,30.07
2022-12-22T11:51:46.820Z,33.30
2022-12-22T11:59:14.214Z,32.92
2022-12-22T12:02:14.382Z,33.70
2022-12-22T12:05:24.868Z,37.08
2022-12-22T12:08:19.872Z,41.10
2022-12-22T12:11:21.081Z,37.58
2022-12-22T12:14:25.245Z,33.42
2022-12-22T12:17:39.223Z,30.85
2022-12-22T12:20:33.803Z,28.58
2022-12-22T12:23:40.858Z,28.80
2022-12-22T12:26:36.907Z,29.80
2022-12-22T12:29:27.312Z,32.88
2022-12-22T12:32:21.619Z,32.28
2022-12-22T12:35:29.579Z,34.58
2022-12-22T12:38:56.875Z,33.83
2022-12-22T12:41:36.010Z,35.65
2022-12-22T12:44:26.959Z,36.47
2022-12-22T12:47:28.881Z,40.38
2022-12-22T12:50:32.031Z,40.67
2022-12-22T12:53:28.391Z,41.22
2022-12-22T12:56:13.991Z,46.90
2022-12-22T12:59:01.564Z,60.15
2022-12-22T13:01:58.799Z,88.30
2022-12-22T13:05:05.298Z,65.57
2022-12-22T13:08:15.474Z,62.30
2022-12-22T13:11:00.961Z,53.53
2022-12-22T13:13:47.830Z,45.67
2022-12-22T13:16:39.485Z,39.67
2022-12-22T13:19:26.361Z,36.10
2022-12-22T13:22:12.216Z,35.20
2022-12-22T13:25:02.048Z,31.98
2022-12-22T13:27:49.438Z,32.40
2022-12-22T13:30:35.978Z,31.08
2022-12-22T13:33:25.379Z,29.33
2022-12-22T13:36:19.936Z,31.42
2022-12-22T13:39:15.334Z,31.38
2022-12-22T13:42:00.963Z,33.05
2022-12-22T13:44:46.917Z,33.65
2022-12-22T13:47:32.944Z,34.50
2022-12-22T13:50:41.960Z,36.25
2022-12-22T13:54:07.062Z,35.95
2022-12-22T13:56:54.521Z,37.55
2022-12-22T13:59:42.699Z,37.60
2022-12-22T14:02:32.696Z,38.67
2022-12-22T14:05:19.281Z,40.67
2022-12-22T14:08:06.733Z,41.38
2022-12-22T14:10:54.436Z,43.67
2022-12-22T14:13:40.297Z,42.47
2022-12-22T14:16:26.371Z,39.08
2022-12-22T14:19:17.114Z,42.40
2022-12-22T14:22:08.450Z,46.47
2022-12-22T14:24:59.128Z,48.23
2022-12-22T14:27:54.642Z,56.03
2022-12-22T14:30:45.189Z,58.90
2022-12-22T14:33:34.520Z,55.35
2022-12-22T14:36:27.455Z,49.72
2022-12-22T14:39:23.675Z,42.78
2022-12-22T14:42:13.823Z,38.63
2022-12-22T14:45:00.499Z,35.83
2022-12-22T14:47:45.971Z,32.35
2022-12-22T14:50:31.887Z,35.05
2022-12-22T14:53:24.709Z,34.38
2022-12-22T14:56:12.771Z,34.67
2022-12-22T14:59:21.879Z,39.22
2022-12-22T15:02:27.188Z,40.72
2022-12-22T15:05:25.972Z,53.25
2022-12-22T15:08:40.995Z,55.53
2022-12-22T15:11:27.463Z,62.22
2022-12-22T15:14:18.774Z,61.50
2022-12-22T15:17:07.695Z,49.58
2022-12-22T15:19:59.329Z,46.42
2022-12-22T15:22:45.056Z,45.78
2022-12-22T15:25:30.682Z,49.17
2022-12-22T15:28:16.112Z,41.38
2022-12-22T15:31:03.237Z,31.02
2022-12-22T15:33:48.951Z,29.30
2022-12-22T15:36:35.038Z,31.02
2022-12-22T15:39:22.202Z,37.78
2022-12-22T15:42:07.900Z,52.75
2022-12-22T15:44:53.233Z,51.30
2022-12-22T15:47:40.127Z,55.50
2022-12-22T15:50:38.763Z,57.75
2022-12-22T15:53:24.898Z,42.00
2022-12-22T15:56:17.742Z,37.05
2022-12-22T15:59:03.710Z,33.47
2022-12-22T16:01:56.575Z,32.83
2022-12-22T16:04:45.965Z,35.38
2022-12-22T16:07:31.874Z,36.28
2022-12-22T16:10:37.496Z,39.05
2022-12-22T16:13:29.713Z,41.83
2022-12-22T16:16:15.484Z,38.58
2022-12-22T16:19:01.032Z,39.90
2022-12-22T16:21:49.571Z,35.50
2022-12-22T16:24:37.159Z,35.75
2022-12-22T16:27:23.814Z,37.40
2022-12-22T16:30:18.776Z,43.97
2022-12-22T16:33:04.796Z,39.17
2022-12-22T16:35:51.306Z,37.15
2022-12-22T16:38:39.144Z,29.85
2022-12-22T16:41:25.790Z,30.10
2022-12-22T16:47:29.153Z,35.70
2022-12-22T16:50:32.983Z,34.60
2022-12-22T16:53:18.780Z,34.13
2022-12-22T16:56:04.480Z,33.63
2022-12-22T16:58:50.575Z,31.88
2022-12-22T17:02:03.479Z,31.65
2022-12-22T17:04:51.137Z,26.77
2022-12-22T17:07:37.026Z,25.85
2022-12-22T17:10:23.692Z,26.23
2022-12-22T17:13:10.877Z,25.40
2022-12-22T17:15:56.758Z,25.70
2022-12-22T17:18:42.881Z,25.08
2022-12-22T17:21:30.029Z,24.92
2022-12-22T17:24:21.664Z,26.65
2022-12-22T17:27:14.446Z,27.42
2022-12-22T17:30:03.727Z,25.70
2022-12-22T17:32:52.941Z,26.05
2022-12-22T17:35:38.505Z,27.23
2022-12-22T17:38:26.986Z,28.23
2022-12-22T17:41:17.287Z,31.58
2022-12-22T17:44:02.998Z,40.05
2022-12-22T17:46:50.203Z,41.85
2022-12-22T17:49:35.960Z,38.58
2022-12-22T17:52:24.334Z,33.85
2022-12-22T17:56:06.401Z,31.17
2022-12-22T17:58:35.344Z,33.55
2022-12-22T18:01:22.384Z,38.28
2022-12-22T18:04:10.075Z,37.13
2022-12-22T18:06:56.755Z,36.45
2022-12-22T18:09:43.024Z,36.13
2022-12-22T18:12:29.856Z,34.67
2022-12-22T18:15:17.234Z,35.45
2022-12-22T18:18:02.770Z,42.70
2022-12-22T18:21:05.899Z,45.17
2022-12-22T18:23:57.268Z,43.25
2022-12-22T18:26:43.625Z,43.03
2022-12-22T18:29:30.245Z,37.35
2022-12-22T18:32:20.808Z,31.20
2022-12-22T18:39:31.812Z,23.45
2022-12-22T18:42:23.381Z,24.58
2022-12-22T18:45:14.709Z,21.15
2022-12-22T18:48:00.412Z,23.13
2022-12-22T18:50:45.995Z,25.13
2022-12-22T18:53:32.131Z,29.15
2022-12-22T18:56:18.570Z,36.35
2022-12-22T18:59:25.595Z,37.92
2022-12-22T19:02:22.436Z,40.05
2022-12-22T19:05:24.293Z,37.67
2022-12-22T19:08:21.586Z,31.75
2022-12-22T19:11:08.470Z,31.42
2022-12-22T19:13:54.119Z,34.50
2022-12-22T19:16:39.820Z,34.30
2022-12-22T19:19:25.374Z,28.65
2022-12-22T19:22:13.640Z,29.63
2022-12-22T19:24:59.419Z,28.63
2022-12-22T19:27:46.909Z,30.88
2022-12-22T19:30:32.930Z,35.75
2022-12-22T19:33:24.673Z,27.13
2022-12-22T19:36:28.089Z,24.95
2022-12-22T19:39:13.637Z,28.98
2022-12-22T19:41:59.137Z,29.50
2022-12-22T19:44:44.735Z,30.30
2022-12-22T19:47:30.617Z,32.03
2022-12-22T19:50:27.050Z,34.67
2022-12-22T19:53:12.950Z,34.55
2022-12-22T19:55:58.808Z,30.55
2022-12-22T19:58:44.291Z,26.55
2022-12-22T20:01:29.893Z,24.17
2022-12-22T20:04:15.615Z,24.08
2022-12-22T20:07:01.130Z,23.52
2022-12-22T20:09:46.861Z,22.65
2022-12-22T20:12:37.896Z,24.70
2022-12-22T20:15:39.297Z,22.83
2022-12-22T20:18:29.123Z,27.13
2022-12-22T20:21:24.943Z,25.98
2022-12-22T20:24:20.362Z,25.30
2022-12-22T20:27:17.609Z,24.75
2022-12-22T20:30:03.185Z,27.02
2022-12-22T20:32:49.277Z,31.30
2022-12-22T20:35:38.275Z,31.55
2022-12-22T20:38:29.123Z,37.85
2022-12-22T20:41:14.612Z,39.20
2022-12-22T20:44:00.189Z,44.85
2022-12-22T20:46:46.313Z,37.95
2022-12-22T20:49:32.991Z,31.73
2022-12-22T20:52:19.211Z,29.00
2022-12-22T20:55:05.630Z,27.95
2022-12-22T20:57:51.521Z,25.98
2022-12-22T21:00:37.207Z,27.95
2022-12-22T21:03:22.940Z,34.05
2022-12-22T21:06:29.127Z,41.10
2022-12-22T21:09:16.155Z,37.60
2022-12-22T21:12:02.009Z,31.50
2022-12-22T21:14:47.332Z,27.40
2022-12-22T21:17:32.733Z,26.75
2022-12-22T21:20:23.425Z,24.83
2022-12-22T21:23:09.134Z,24.55
2022-12-22T21:25:54.676Z,25.67
2022-12-22T21:28:40.057Z,26.02
2022-12-22T21:31:26.122Z,24.83
2022-12-22T21:34:13.213Z,26.77
2022-12-22T21:37:02.930Z,26.58
2022-12-22T21:39:48.844Z,29.05
2022-12-22T21:42:42.171Z,33.38
2022-12-22T21:45:30.576Z,33.53
2022-12-22T21:48:20.677Z,36.17
2022-12-22T21:51:06.634Z,47.15
2022-12-22T21:53:51.959Z,35.13
2022-12-22T21:56:37.503Z,32.28
2022-12-22T21:59:23.431Z,32.42
2022-12-22T22:02:17.314Z,31.58
2022-12-22T22:05:03.027Z,30.17
2022-12-22T22:07:48.852Z,28.38
2022-12-22T22:10:41.431Z,25.70
2022-12-22T22:13:27.078Z,23.10
2022-12-22T22:16:12.880Z,24.23
2022-12-22T22:18:59.248Z,24.63
2022-12-22T22:21:46.078Z,24.75
2022-12-22T22:24:31.833Z,27.60
2022-12-22T22:27:17.465Z,28.02
2022-12-22T22:30:06.787Z,26.08
2022-12-22T22:32:52.243Z,25.08
2022-12-22T22:35:40.556Z,27.95
2022-12-22T22:38:26.020Z,27.60
2022-12-22T22:41:11.328Z,26.88
2022-12-22T22:43:58.211Z,26.85
2022-12-22T22:46:43.585Z,28.67
2022-12-22T22:49:29.143Z,27.05
2022-12-22T22:52:15.701Z,26.75
2022-12-22T22:55:01.111Z,28.73
2022-12-22T22:57:46.602Z,29.58
2022-12-22T23:00:32.614Z,28.73
2022-12-22T23:03:18.031Z,29.55
2022-12-22T23:06:12.055Z,28.63
2022-12-22T23:08:57.943Z,29.90
2022-12-22T23:11:43.130Z,28.02
2022-12-22T23:14:28.733Z,28.58
2022-12-22T23:17:13.979Z,27.70
2022-12-22T23:19:59.567Z,26.17
2022-12-22T23:22:45.008Z,24.17
2022-12-22T23:25:30.305Z,23.52
2022-12-22T23:28:16.310Z,24.00
2022-12-22T23:31:01.981Z,23.02
2022-12-22T23:33:47.213Z,22.38
2022-12-22T23:36:33.076Z,23.88
2022-12-22T23:39:18.580Z,21.00
2022-12-22T23:42:03.968Z,22.85
2022-12-22T23:44:49.455Z,21.35
2022-12-22T23:47:34.745Z,23.85
2022-12-22T23:50:20.449Z,23.38
2022-12-22T23:53:06.165Z,21.48
2022-12-22T23:55:51.610Z,20.10
2022-12-22T23:58:36.971Z,19.35
